createdAt,value
2022-08-04T00:00:14.024Z,17.30
2022-08-04T00:04:04.129Z,17.20
2022-08-04T00:08:14.411Z,17.20
2022-08-04T00:12:01.432Z,17.10
2022-08-04T00:15:44.313Z,17.00
2022-08-04T00:19:32.963Z,17.00
2022-08-04T00:23:16.990Z,16.90
2022-08-04T00:26:59.839Z,16.70
2022-08-04T00:30:42.757Z,16.70
2022-08-04T00:34:27.066Z,16.50
2022-08-04T00:38:10.226Z,16.50
2022-08-04T00:42:25.533Z,16.40
2022-08-04T00:46:28.887Z,16.30
2022-08-04T00:50:23.970Z,16.20
2022-08-04T00:54:34.396Z,16.10
2022-08-04T00:58:21.890Z,16.10
2022-08-04T01:02:31.351Z,16.00
2022-08-04T01:06:32.999Z,15.90
2022-08-04T01:10:24.024Z,15.80
2022-08-04T01:14:08.739Z,15.80
2022-08-04T01:18:06.273Z,15.70
2022-08-04T01:21:54.200Z,15.70
2022-08-04T01:26:02.908Z,15.60
2022-08-04T01:30:05.295Z,15.50
2022-08-04T01:34:04.051Z,15.50
2022-08-04T01:37:56.127Z,15.50
2022-08-04T01:41:38.179Z,15.50
2022-08-04T01:45:23.757Z,15.50
2022-08-04T01:49:07.607Z,15.50
2022-08-04T01:52:53.879Z,15.50
2022-08-04T01:56:36.287Z,15.60
2022-08-04T02:00:21.457Z,15.60
2022-08-04T02:04:19.752Z,15.60
2022-08-04T02:08:30.025Z,15.50
2022-08-04T02:12:46.628Z,15.40
2022-08-04T02:16:43.967Z,15.30
2022-08-04T02:20:38.125Z,15.30
2022-08-04T02:24:25.703Z,15.20
2022-08-04T02:28:40.221Z,15.20
2022-08-04T02:32:29.201Z,15.20
2022-08-04T02:36:41.929Z,15.20
2022-08-04T02:40:26.635Z,15.20
2022-08-04T02:44:10.958Z,15.20
2022-08-04T02:48:29.207Z,15.10
2022-08-04T02:51:58.438Z,15.10
2022-08-04T02:55:50.521Z,15.10
2022-08-04T02:59:44.086Z,15.00
2022-08-04T03:03:31.551Z,14.90
2022-08-04T03:07:51.518Z,14.90
2022-08-04T03:11:51.932Z,14.80
2022-08-04T03:15:48.993Z,14.80
2022-08-04T03:19:33.636Z,14.80
2022-08-04T03:23:46.355Z,14.70
2022-08-04T03:28:04.997Z,14.70
2022-08-04T03:32:24.251Z,14.70
2022-08-04T03:36:31.669Z,14.70
2022-08-04T03:40:22.749Z,14.70
2022-08-04T03:44:19.421Z,14.80
2022-08-04T03:48:09.994Z,14.70
2022-08-04T03:52:51.664Z,14.70
2022-08-04T03:56:51.029Z,14.70
2022-08-04T04:01:11.618Z,14.70
2022-08-04T04:05:04.072Z,14.70
2022-08-04T04:08:58.649Z,14.60
2022-08-04T04:13:10.244Z,14.60
2022-08-04T04:17:29.513Z,14.60
2022-08-04T04:21:35.749Z,14.60
2022-08-04T04:25:42.873Z,14.60
2022-08-04T04:29:50.883Z,14.60
2022-08-04T04:33:38.876Z,14.60
2022-08-04T04:37:34.025Z,14.60
2022-08-04T04:41:26.460Z,14.60
2022-08-04T04:45:26.513Z,14.70
2022-08-04T04:49:14.246Z,14.80
2022-08-04T04:53:33.347Z,14.90
2022-08-04T04:57:17.895Z,14.90
2022-08-04T05:01:17.508Z,14.90
2022-08-04T05:05:02.234Z,14.90
2022-08-04T05:09:06.832Z,14.80
2022-08-04T05:14:37.119Z,14.80
2022-08-04T05:17:50.089Z,14.80
2022-08-04T05:21:45.035Z,14.80
2022-08-04T05:25:40.952Z,14.80
2022-08-04T05:29:35.413Z,14.80
2022-08-04T05:33:29.089Z,14.90
2022-08-04T05:37:17.551Z,14.90
2022-08-04T05:41:00.286Z,15.00
2022-08-04T05:44:47.589Z,15.00
2022-08-04T05:48:34.239Z,15.00
2022-08-04T05:52:17.218Z,15.10
2022-08-04T05:56:01.943Z,15.10
2022-08-04T05:59:46.827Z,15.10
2022-08-04T06:03:30.703Z,15.10
2022-08-04T06:07:14.299Z,15.20
2022-08-04T06:11:02.153Z,15.20
2022-08-04T06:14:47.210Z,15.30
2022-08-04T06:19:56.852Z,15.40
2022-08-04T06:22:34.367Z,15.40
2022-08-04T06:26:19.947Z,15.50
2022-08-04T06:30:03.037Z,15.50
2022-08-04T06:33:54.353Z,15.60
2022-08-04T06:37:41.847Z,15.60
2022-08-04T06:41:25.492Z,15.70
2022-08-04T06:45:10.017Z,15.70
2022-08-04T06:48:52.841Z,15.90
2022-08-04T06:52:34.882Z,16.20
2022-08-04T06:56:19.144Z,16.40
2022-08-04T07:00:11.419Z,16.50
2022-08-04T07:03:53.567Z,16.60
2022-08-04T07:07:37.162Z,16.80
2022-08-04T07:11:39.157Z,17.20
2022-08-04T07:15:27.272Z,17.50
2022-08-04T07:19:09.993Z,17.80
2022-08-04T07:22:53.747Z,18.20
2022-08-04T07:26:35.762Z,18.60
2022-08-04T07:30:21.825Z,18.90
2022-08-04T07:34:20.749Z,19.10
2022-08-04T07:38:04.282Z,19.30
2022-08-04T07:41:53.039Z,19.50
2022-08-04T07:45:35.088Z,19.80
2022-08-04T07:49:56.301Z,20.10
2022-08-04T07:53:55.260Z,20.30
2022-08-04T07:57:41.046Z,20.30
2022-08-04T08:01:25.033Z,20.40
2022-08-04T08:05:12.946Z,20.40
2022-08-04T08:08:59.485Z,20.50
2022-08-04T08:12:51.147Z,20.60
2022-08-04T08:16:34.727Z,20.60
2022-08-04T08:20:29.561Z,20.50
2022-08-04T08:24:14.174Z,20.40
2022-08-04T08:27:56.839Z,20.30
2022-08-04T08:31:57.555Z,20.30
2022-08-04T08:35:53.238Z,20.30
2022-08-04T08:40:10.567Z,20.30
2022-08-04T08:44:19.117Z,20.30
2022-08-04T08:48:36.317Z,20.40
2022-08-04T08:52:57.547Z,20.60
2022-08-04T08:57:28.172Z,20.80
2022-08-04T09:01:28.333Z,21.30
2022-08-04T09:05:46.310Z,21.60
2022-08-04T09:09:49.780Z,21.70
2022-08-04T09:13:41.830Z,21.80
2022-08-04T09:17:30.814Z,21.80
2022-08-04T09:21:40.334Z,22.00
2022-08-04T09:25:31.359Z,22.00
2022-08-04T09:29:40.417Z,21.90
2022-08-04T09:33:55.121Z,21.80
2022-08-04T09:37:46.769Z,21.80
2022-08-04T09:41:59.727Z,21.90
2022-08-04T09:46:09.200Z,22.10
2022-08-04T09:50:14.630Z,22.20
2022-08-04T09:54:37.500Z,22.30
2022-08-04T09:58:37.852Z,22.70
2022-08-04T10:02:23.976Z,23.20
2022-08-04T10:06:12.000Z,23.60
2022-08-04T10:10:25.008Z,23.70
2022-08-04T10:14:30.767Z,23.80
2022-08-04T10:18:33.600Z,24.40
2022-08-04T10:22:28.147Z,25.20
2022-08-04T10:26:31.583Z,26.00
2022-08-04T10:30:16.832Z,27.00
2022-08-04T10:34:13.089Z,27.70
2022-08-04T10:38:02.422Z,27.20
2022-08-04T10:42:01.413Z,26.70
2022-08-04T10:46:07.441Z,27.10
2022-08-04T10:49:58.509Z,28.00
2022-08-04T10:53:43.422Z,29.10
2022-08-04T10:57:46.839Z,29.40
2022-08-04T11:02:00.894Z,29.10
2022-08-04T11:05:46.916Z,29.10
2022-08-04T11:09:30.524Z,29.30
2022-08-04T11:13:22.055Z,28.90
2022-08-04T11:17:21.179Z,28.50
2022-08-04T11:21:12.745Z,28.10
2022-08-04T11:25:36.244Z,28.00
2022-08-04T11:29:44.737Z,28.30
2022-08-04T11:33:55.508Z,29.00
2022-08-04T11:37:46.741Z,29.70
2022-08-04T11:41:47.721Z,29.90
2022-08-04T11:45:45.580Z,29.70
2022-08-04T11:49:56.496Z,29.50
2022-08-04T11:53:42.348Z,29.50
2022-08-04T11:57:35.855Z,29.40
2022-08-04T12:01:55.068Z,29.10
2022-08-04T12:06:00.186Z,28.70
2022-08-04T12:09:56.408Z,28.20
2022-08-04T12:14:05.287Z,27.70
2022-08-04T12:18:03.559Z,27.10
2022-08-04T12:22:00.028Z,26.60
2022-08-04T12:25:46.803Z,26.20
2022-08-04T12:29:33.475Z,25.90
2022-08-04T12:33:20.810Z,26.00
2022-08-04T12:37:10.708Z,26.30
2022-08-04T12:40:57.015Z,26.70
2022-08-04T12:44:41.351Z,27.00
2022-08-04T12:48:25.439Z,27.20
2022-08-04T12:52:11.649Z,27.20
2022-08-04T12:56:02.116Z,27.50
2022-08-04T12:59:46.841Z,28.00
2022-08-04T13:03:52.805Z,28.40
2022-08-04T13:07:44.075Z,28.50
2022-08-04T13:11:26.444Z,28.70
2022-08-04T13:15:18.520Z,29.20
2022-08-04T13:19:05.365Z,29.50
2022-08-04T13:22:47.646Z,29.80
2022-08-04T13:26:44.889Z,30.10
2022-08-04T13:30:33.379Z,30.20
2022-08-04T13:34:19.141Z,30.40
2022-08-04T13:38:02.368Z,30.50
2022-08-04T13:41:53.771Z,30.40
2022-08-04T13:45:41.900Z,30.20
2022-08-04T13:49:38.140Z,30.20
2022-08-04T13:53:31.002Z,30.50
2022-08-04T13:57:19.691Z,30.30
2022-08-04T14:01:05.954Z,30.00
2022-08-04T14:04:54.558Z,29.50
2022-08-04T14:08:58.047Z,28.70
2022-08-04T14:12:48.184Z,28.00
2022-08-04T14:16:30.115Z,27.70
2022-08-04T14:20:12.242Z,27.80
2022-08-04T14:23:56.595Z,28.00
2022-08-04T14:27:52.331Z,28.20
2022-08-04T14:31:34.597Z,28.40
2022-08-04T14:35:16.593Z,28.50
2022-08-04T14:39:00.433Z,28.40
2022-08-04T14:42:55.237Z,28.30
2022-08-04T14:46:55.969Z,28.30
2022-08-04T14:50:46.211Z,28.60
2022-08-04T14:54:35.829Z,28.50
2022-08-04T14:58:33.866Z,28.50
2022-08-04T15:02:19.078Z,28.20
2022-08-04T15:06:08.003Z,28.00
2022-08-04T15:09:53.707Z,27.80
2022-08-04T15:13:36.990Z,27.80
2022-08-04T15:17:29.708Z,28.00
2022-08-04T15:21:14.455Z,27.90
2022-08-04T15:24:56.478Z,27.80
2022-08-04T15:28:41.664Z,27.80
2022-08-04T15:32:24.834Z,28.00
2022-08-04T15:36:14.646Z,28.00
2022-08-04T15:40:06.848Z,27.70
2022-08-04T15:44:13.461Z,27.50
2022-08-04T15:48:04.205Z,27.40
2022-08-04T15:51:46.490Z,27.40
2022-08-04T15:55:38.485Z,27.50
2022-08-04T16:00:01.381Z,27.60
2022-08-04T16:03:58.695Z,27.70
2022-08-04T16:08:13.764Z,27.60
2022-08-04T16:11:56.046Z,27.20
2022-08-04T16:15:43.745Z,26.80
2022-08-04T16:19:44.901Z,26.60
2022-08-04T16:23:54.329Z,26.40
2022-08-04T16:27:43.565Z,26.20
2022-08-04T16:31:25.781Z,26.00
2022-08-04T16:35:22.278Z,25.90
2022-08-04T16:39:05.667Z,25.70
2022-08-04T16:42:50.673Z,25.50
2022-08-04T16:47:08.840Z,25.40
2022-08-04T16:51:03.217Z,25.30
2022-08-04T16:54:47.478Z,25.10
2022-08-04T16:58:36.787Z,25.10
2022-08-04T17:02:25.084Z,24.90
2022-08-04T17:06:13.232Z,24.80
2022-08-04T17:09:55.515Z,24.70
2022-08-04T17:14:03.722Z,24.60
2022-08-04T17:18:03.969Z,24.50
2022-08-04T17:21:45.139Z,24.40
2022-08-04T17:25:51.901Z,24.20
2022-08-04T17:29:44.211Z,24.10
2022-08-04T17:33:54.857Z,24.00
2022-08-04T17:37:38.815Z,23.90
2022-08-04T17:41:30.425Z,23.90
2022-08-04T17:45:50.721Z,23.90
2022-08-04T17:49:25.051Z,23.90
2022-08-04T17:53:11.815Z,23.90
2022-08-04T17:57:00.034Z,24.00
2022-08-04T18:00:42.249Z,24.10
2022-08-04T18:05:06.134Z,24.10
2022-08-04T18:08:58.812Z,24.10
2022-08-04T18:12:43.441Z,24.10
2022-08-04T18:16:27.387Z,24.00
2022-08-04T18:20:14.453Z,23.90
2022-08-04T18:23:57.839Z,23.70
2022-08-04T18:27:50.398Z,23.60
2022-08-04T18:31:35.043Z,23.40
2022-08-04T18:35:18.466Z,23.20
2022-08-04T18:39:12.151Z,23.00
2022-08-04T18:42:56.923Z,22.80
2022-08-04T18:46:38.942Z,22.60
2022-08-04T18:51:11.027Z,22.50
2022-08-04T18:54:36.847Z,22.30
2022-08-04T18:58:27.257Z,22.20
2022-08-04T19:02:16.307Z,22.00
2022-08-04T19:05:59.202Z,21.90
2022-08-04T19:09:51.933Z,21.70
2022-08-04T19:13:35.048Z,21.60
2022-08-04T19:17:17.195Z,21.50
2022-08-04T19:21:19.597Z,21.30
2022-08-04T19:25:41.448Z,21.20
2022-08-04T19:29:23.764Z,21.10
2022-08-04T19:33:19.598Z,20.90
2022-08-04T19:37:07.526Z,20.80
2022-08-04T19:40:52.577Z,20.60
2022-08-04T19:44:35.062Z,20.50
2022-08-04T19:48:30.382Z,20.30
2022-08-04T19:52:12.604Z,20.10
2022-08-04T19:55:54.666Z,20.00
2022-08-04T19:59:36.656Z,19.80
2022-08-04T20:04:09.642Z,19.70
2022-08-04T20:07:33.299Z,19.50
2022-08-04T20:11:17.430Z,19.40
2022-08-04T20:15:01.643Z,19.20
2022-08-04T20:18:55.843Z,19.20
2022-08-04T20:22:52.278Z,19.00
2022-08-04T20:26:35.316Z,18.90
2022-08-04T20:30:19.006Z,18.90
2022-08-04T20:34:01.357Z,18.80
2022-08-04T20:37:55.067Z,18.70
2022-08-04T20:41:44.967Z,18.70
2022-08-04T20:45:55.914Z,18.60
2022-08-04T20:49:35.212Z,18.50
2022-08-04T20:53:20.122Z,18.40
2022-08-04T20:57:14.926Z,18.40
2022-08-04T21:00:59.034Z,18.30
2022-08-04T21:04:48.536Z,18.20
2022-08-04T21:08:30.815Z,18.10
2022-08-04T21:12:17.063Z,18.10
2022-08-04T21:16:10.607Z,18.00
2022-08-04T21:20:13.919Z,17.90
2022-08-04T21:23:56.041Z,17.90
2022-08-04T21:27:39.583Z,17.80
2022-08-04T21:31:22.293Z,17.70
2022-08-04T21:35:05.401Z,17.60
2022-08-04T21:38:52.762Z,17.50
2022-08-04T21:42:34.682Z,17.40
2022-08-04T21:46:16.642Z,17.40
2022-08-04T21:50:02.071Z,17.30
2022-08-04T21:53:46.562Z,17.20
2022-08-04T21:57:30.543Z,17.00
2022-08-04T22:01:14.413Z,17.00
2022-08-04T22:05:16.367Z,16.90
2022-08-04T22:08:58.415Z,16.80
2022-08-04T22:12:40.355Z,16.70
2022-08-04T22:16:26.339Z,16.60
2022-08-04T22:20:27.898Z,16.50
2022-08-04T22:24:13.819Z,16.40
2022-08-04T22:28:07.885Z,16.30
2022-08-04T22:31:56.360Z,16.30
2022-08-04T22:35:48.930Z,16.20
2022-08-04T22:39:31.585Z,16.20
2022-08-04T22:43:32.398Z,16.10
2022-08-04T22:47:20.451Z,16.10
2022-08-04T22:51:07.245Z,16.10
2022-08-04T22:54:49.339Z,16.10
2022-08-04T22:58:33.109Z,16.00
2022-08-04T23:02:15.334Z,16.00
2022-08-04T23:05:57.235Z,16.00
2022-08-04T23:09:51.014Z,16.00
2022-08-04T23:13:33.487Z,16.00
2022-08-04T23:17:15.458Z,16.00
2022-08-04T23:20:57.905Z,16.00
2022-08-04T23:24:39.825Z,16.00
2022-08-04T23:28:23.103Z,16.00
2022-08-04T23:32:06.278Z,16.00
2022-08-04T23:35:48.186Z,16.00
2022-08-04T23:39:42.246Z,16.00
2022-08-04T23:43:49.556Z,16.00
2022-08-04T23:48:16.113Z,16.00
2022-08-04T23:51:39.491Z,16.00
2022-08-04T23:55:21.502Z,16.00
2022-08-04T23:59:04.636Z,15.90
